createdAt,value
2022-09-02T00:05:22.551Z,4.90
2022-09-02T00:12:06.719Z,4.30
2022-09-02T00:18:50.027Z,5.10
2022-09-02T00:25:32.686Z,5.50
2022-09-02T00:32:15.114Z,5.38
2022-09-02T00:38:57.586Z,4.80
2022-09-02T00:45:40.014Z,5.05
2022-09-02T00:52:29.412Z,5.25
2022-09-02T00:59:20.213Z,5.30
2022-09-02T01:06:03.314Z,4.90
2022-09-02T01:12:45.800Z,5.70
2022-09-02T01:19:42.742Z,4.65
2022-09-02T01:26:25.094Z,5.32
2022-09-02T01:33:08.228Z,4.75
2022-09-02T01:39:52.342Z,6.45
2022-09-02T01:46:36.510Z,6.53
2022-09-02T01:53:19.398Z,6.40
2022-09-02T02:00:04.728Z,6.53
2022-09-02T02:06:55.337Z,6.43
2022-09-02T02:13:38.451Z,5.43
2022-09-02T02:20:21.859Z,4.65
2022-09-02T02:27:05.048Z,4.85
2022-09-02T02:33:47.598Z,5.28
2022-09-02T02:40:30.211Z,4.55
2022-09-02T02:47:12.750Z,5.03
2022-09-02T02:53:58.906Z,6.28
2022-09-02T03:00:43.280Z,4.78
2022-09-02T03:07:25.764Z,4.25
2022-09-02T03:14:08.474Z,5.10
2022-09-02T03:20:51.592Z,6.03
2022-09-02T03:27:34.543Z,6.07
2022-09-02T03:34:18.095Z,5.78
2022-09-02T03:41:00.558Z,6.28
2022-09-02T03:47:47.181Z,6.22
2022-09-02T03:54:29.660Z,5.25
2022-09-02T04:01:17.927Z,6.03
2022-09-02T04:08:01.106Z,5.20
2022-09-02T04:14:44.439Z,4.85
2022-09-02T04:21:27.097Z,5.93
2022-09-02T04:28:10.105Z,6.68
2022-09-02T04:34:52.566Z,6.13
2022-09-02T04:41:36.790Z,6.43
2022-09-02T04:48:23.864Z,6.65
2022-09-02T04:55:07.084Z,6.65
2022-09-02T05:01:50.420Z,6.28
2022-09-02T05:08:37.046Z,6.00
2022-09-02T05:15:21.017Z,5.57
2022-09-02T05:22:05.142Z,4.72
2022-09-02T05:28:52.101Z,5.55
2022-09-02T05:35:39.107Z,5.00
2022-09-02T05:42:26.740Z,4.70
2022-09-02T05:49:09.321Z,4.97
2022-09-02T05:55:59.231Z,4.53
2022-09-02T06:02:42.890Z,4.00
2022-09-02T06:09:44.698Z,4.03
2022-09-02T06:16:27.624Z,3.45
2022-09-02T06:23:10.330Z,2.80
2022-09-02T06:29:56.283Z,3.05
2022-09-02T06:36:43.279Z,3.22
2022-09-02T06:43:28.185Z,2.70
2022-09-02T06:50:31.267Z,2.67
2022-09-02T06:57:14.468Z,2.15
2022-09-02T07:04:16.353Z,2.40
2022-09-02T07:10:59.154Z,2.20
2022-09-02T07:17:41.966Z,2.53
2022-09-02T07:24:28.497Z,2.10
2022-09-02T07:31:14.267Z,2.22
2022-09-02T07:37:57.079Z,2.20
2022-09-02T07:44:39.605Z,1.95
2022-09-02T07:51:23.334Z,2.50
2022-09-02T07:58:10.903Z,1.95
2022-09-02T08:04:56.280Z,2.05
2022-09-02T08:11:40.763Z,2.40
2022-09-02T08:18:23.554Z,2.10
2022-09-02T08:25:06.449Z,1.80
2022-09-02T08:31:50.847Z,2.20
2022-09-02T08:38:36.763Z,2.03
2022-09-02T08:45:32.771Z,1.60
2022-09-02T08:52:42.202Z,1.75
2022-09-02T08:59:27.201Z,1.52
2022-09-02T09:06:30.666Z,1.58
2022-09-02T09:13:40.746Z,1.83
2022-09-02T09:20:44.079Z,1.90
2022-09-02T09:27:27.124Z,1.45
2022-09-02T09:34:12.663Z,1.33
2022-09-02T09:41:12.109Z,1.33
2022-09-02T09:48:16.656Z,1.38
2022-09-02T09:55:22.818Z,1.40
2022-09-02T10:02:20.979Z,1.45
2022-09-02T10:09:18.367Z,1.45
2022-09-02T10:16:28.631Z,1.33
2022-09-02T10:23:25.753Z,1.40
2022-09-02T10:30:21.610Z,1.08
2022-09-02T10:37:19.991Z,1.30
2022-09-02T10:44:36.689Z,1.17
2022-09-02T10:51:43.775Z,1.30
2022-09-02T10:59:07.907Z,1.38
2022-09-02T11:06:07.507Z,1.50
2022-09-02T11:13:03.288Z,1.40
2022-09-02T11:20:01.379Z,1.42
2022-09-02T11:26:53.753Z,1.48
2022-09-02T11:41:36.061Z,1.30
2022-09-02T11:48:47.902Z,1.50
2022-09-02T11:55:39.202Z,1.42
2022-09-02T12:02:45.748Z,1.25
2022-09-02T12:09:49.434Z,1.30
2022-09-02T12:17:03.515Z,1.27
2022-09-02T12:23:49.225Z,1.25
2022-09-02T12:31:00.904Z,1.40
2022-09-02T12:37:55.092Z,1.40
2022-09-02T12:45:04.629Z,1.20
2022-09-02T12:52:01.439Z,1.40
2022-09-02T12:58:53.303Z,1.58
2022-09-02T13:05:56.480Z,1.40
2022-09-02T13:13:17.089Z,1.40
2022-09-02T13:20:43.519Z,1.52
2022-09-02T13:27:58.074Z,1.25
2022-09-02T13:34:45.387Z,1.20
2022-09-02T13:41:32.738Z,1.20
2022-09-02T13:48:22.647Z,1.30
2022-09-02T13:55:06.063Z,1.20
2022-09-02T14:01:48.657Z,1.20
2022-09-02T14:08:31.850Z,1.25
2022-09-02T14:15:17.543Z,1.80
2022-09-02T14:21:59.895Z,1.40
2022-09-02T14:28:42.287Z,1.40
2022-09-02T14:35:24.749Z,1.80
2022-09-02T14:42:07.155Z,1.65
2022-09-02T14:49:11.270Z,1.42
2022-09-02T14:55:56.856Z,1.52
2022-09-02T15:02:42.517Z,1.40
2022-09-02T15:09:24.986Z,1.45
2022-09-02T15:16:07.374Z,1.48
2022-09-02T15:22:52.280Z,1.48
2022-09-02T15:29:35.071Z,1.48
2022-09-02T15:36:18.417Z,1.50
2022-09-02T15:43:00.769Z,1.60
2022-09-02T15:49:43.170Z,1.60
2022-09-02T15:56:27.640Z,1.35
2022-09-02T16:03:10.063Z,1.70
2022-09-02T16:09:52.442Z,1.45
2022-09-02T16:16:35.902Z,1.40
2022-09-02T16:23:18.286Z,1.63
2022-09-02T16:30:00.629Z,1.40
2022-09-02T16:36:46.083Z,1.33
2022-09-02T16:43:31.621Z,1.40
2022-09-02T16:50:14.029Z,1.75
2022-09-02T16:56:56.351Z,1.75
2022-09-02T17:03:39.660Z,1.58
2022-09-02T17:10:22.013Z,1.70
2022-09-02T17:17:04.486Z,1.50
2022-09-02T17:23:47.870Z,1.70
2022-09-02T17:30:30.868Z,1.58
2022-09-02T17:37:13.329Z,1.95
2022-09-02T17:43:55.733Z,1.70
2022-09-02T17:50:38.516Z,1.75
2022-09-02T17:57:43.054Z,1.70
2022-09-02T18:04:43.222Z,1.80
2022-09-02T18:11:25.585Z,2.60
2022-09-02T18:18:11.850Z,1.60
2022-09-02T18:25:36.343Z,2.20
2022-09-02T18:32:40.719Z,2.38
2022-09-02T18:40:03.300Z,2.30
2022-09-02T18:47:01.823Z,1.85
2022-09-02T18:53:48.441Z,4.70
2022-09-02T19:00:36.724Z,3.90
2022-09-02T19:07:38.948Z,1.88
2022-09-02T19:14:29.130Z,1.80
2022-09-02T19:21:17.588Z,1.65
2022-09-02T19:28:02.539Z,2.38
2022-09-02T19:34:45.752Z,1.30
2022-09-02T19:41:28.280Z,1.70
2022-09-02T19:48:11.312Z,1.45
2022-09-02T19:54:54.351Z,1.52
2022-09-02T20:01:37.897Z,1.42
2022-09-02T20:08:22.383Z,2.08
2022-09-02T20:15:06.670Z,1.73
2022-09-02T20:21:49.358Z,1.90
2022-09-02T20:28:45.134Z,1.75
2022-09-02T20:36:00.282Z,2.33
2022-09-02T20:43:08.338Z,2.55
2022-09-02T20:50:05.145Z,3.30
2022-09-02T20:57:15.161Z,3.33
2022-09-02T21:04:24.202Z,4.68
2022-09-02T21:11:13.944Z,2.72
2022-09-02T21:18:21.261Z,2.83
2022-09-02T21:25:09.794Z,3.67
2022-09-02T21:32:15.435Z,1.40
2022-09-02T21:39:07.060Z,1.48
2022-09-02T21:46:10.769Z,1.38
2022-09-02T21:53:23.352Z,1.73
2022-09-02T22:00:16.793Z,1.90
2022-09-02T22:07:18.992Z,1.85
2022-09-02T22:14:18.791Z,1.70
2022-09-02T22:28:47.123Z,1.90
2022-09-02T22:35:34.137Z,1.75
2022-09-02T22:42:27.031Z,1.60
2022-09-02T22:49:49.215Z,2.35
2022-09-02T22:57:28.749Z,2.00
2022-09-02T23:04:38.713Z,2.47
2022-09-02T23:11:30.607Z,1.90
2022-09-02T23:18:24.370Z,2.58
2022-09-02T23:25:40.852Z,3.28
2022-09-02T23:32:44.134Z,2.03
2022-09-02T23:39:29.592Z,2.17
2022-09-02T23:46:46.178Z,2.15
2022-09-02T23:53:40.273Z,1.98
